• Join FlightAware (Why Join?)
  • Login
  • US Flag 
05:22PM EDT


 

Airport Tracker/Info


-or-


 

Live Flight TrackerFlight Track Log ✈ KAL1243 ✈ 30-Apr-2013 ✈ RKSS / GMP - RKPC / CJU

Flight Track Log - Related Links

Times and Time Zones

All times are in EDT time to prevent confusion due to time zone crossing. See the KAL1243 flight status page for this flight to view local times or setup timezone preferences in your user account.

Time Position Orientation Groundspeed Altitude Reporting Facility
EDT Latitude Longitude Course Direction KTS MPH feet Rate Location/Type
02:00AM 36.4186 126.7037 184° South  Level Estimated
02:01AM 36.3150 126.6959 183° South  Level Estimated
02:02AM 36.2114 126.6882 183° South  Level Estimated
02:03AM 36.1078 126.6804 183° South  Level Estimated
02:04AM 36.0042 126.6727 183° South  Level Estimated
02:05AM 35.9006 126.6650 183° South  Level Estimated
02:06AM 35.7970 126.6574 183° South  Level Estimated
02:07AM 35.6934 126.6497 183° South  Level Estimated
02:08AM 35.5898 126.6421 183° South  Level Estimated
02:09AM 35.4861 126.6345 183° South  Level Estimated
02:10AM 35.3825 126.6269 183° South  Level Estimated
02:11AM 35.2789 126.6193 183° South  Level Estimated
02:12AM 35.1753 126.6118 183° South  Level Estimated
02:13AM 35.0717 126.6042 183° South  Level Estimated
02:14AM 34.9681 126.5967 183° South  Level Estimated
02:15AM 34.8644 126.5892 183° South  Level Estimated
02:16AM 34.7608 126.5817 183° South  Level Estimated
02:17AM 34.6572 126.5743 183° South  Level Estimated
02:18AM 34.5536 126.5668 183° South  Level Estimated
02:19AM 34.4500 126.5594 183° South  Level Estimated
02:20AM 34.3464 126.5520 183° South  Level Estimated
02:21AM 34.2427 126.5446 183° South  Level Estimated
02:22AM 34.1391 126.5373 183° South  Level Estimated
02:23AM 34.0355 126.5299 183° South  Level Estimated
02:24AM 33.9319 126.5226 183° South  Level Estimated
02:25AM 33.8283 126.5153 183° South  Level Estimated
02:26AM 33.7609 126.5105 183° South  Level Estimated
02:27AM 33.6936 126.5058 183° South  Level Estimated
02:28AM 33.6262 126.5011 183° South  Level Estimated
02:29AM 33.5588 126.4964 183° South  Level Estimated
02:30AM 33.5113 126.4930 183° South  Level Estimated
02:31AM 33.5113 126.4930 203° Southwest  Level Estimated
02:32AM 33.5113 126.4930 203° Southwest  Level Estimated
02:33AM 33.5113 126.4930 203° Southwest  Level Estimated
02:34AM 33.5113 126.4930 203° Southwest  Level Estimated
02:35AM 33.5113 126.4930 203° Southwest  Level Estimated
02:36AM 33.5113 126.4930 203° Southwest  Level Estimated
02:37AM 33.5113 126.4930 203° Southwest  Level Estimated
02:38AM 33.5113 126.4930 203° Southwest  Level Estimated
02:39AM 33.5113 126.4930 203° Southwest  Level Estimated
02:40AM 33.5113 126.4930 203° Southwest  Level Estimated
02:41AM 33.5113 126.4930 203° Southwest  Level Estimated
02:42AM 33.5113 126.4930 203° Southwest  Level Estimated
02:43AM 33.5113 126.4930 203° Southwest  Level Estimated
02:44AM 33.5113 126.4930 203° Southwest  Level Estimated
02:45AM 33.5113 126.4930 203° Southwest  Level Estimated
02:46AM 33.5113 126.4930 203° Southwest  Level Estimated
02:47AM 33.5113 126.4930 203° Southwest  Level Estimated
02:48AM 33.5113 126.4930 203° Southwest  Level Estimated
02:49AM 33.5113 126.4930 203° Southwest  Level Estimated
02:50AM 33.5113 126.4930 203° Southwest  Level Estimated